createdAt,value
2022-10-30T00:01:25.900Z,10.35
2022-10-30T00:03:54.700Z,9.82
2022-10-30T00:06:23.537Z,10.73
2022-10-30T00:08:52.380Z,9.38
2022-10-30T00:11:21.378Z,8.23
2022-10-30T00:13:51.599Z,8.05
2022-10-30T00:16:20.393Z,9.25
2022-10-30T00:18:49.241Z,10.50
2022-10-30T00:21:18.464Z,9.65
2022-10-30T00:23:48.329Z,9.27
2022-10-30T00:26:17.552Z,9.73
2022-10-30T00:28:50.166Z,8.15
2022-10-30T00:31:20.597Z,11.02
2022-10-30T00:33:50.883Z,10.68
2022-10-30T00:36:19.836Z,10.52
2022-10-30T00:38:48.749Z,9.68
2022-10-30T00:41:18.697Z,9.75
2022-10-30T00:43:47.883Z,7.70
2022-10-30T00:46:25.953Z,8.57
2022-10-30T00:48:59.421Z,8.32
2022-10-30T00:51:30.112Z,8.57
2022-10-30T00:54:02.036Z,10.77
2022-10-30T00:56:31.762Z,10.75
2022-10-30T00:59:05.525Z,8.48
2022-10-30T01:01:40.265Z,8.80
2022-10-30T01:04:10.008Z,8.48
2022-10-30T01:06:42.621Z,7.32
2022-10-30T01:09:11.547Z,7.75
2022-10-30T01:11:40.608Z,7.22
2022-10-30T01:14:13.519Z,7.38
2022-10-30T01:16:59.625Z,5.10
2022-10-30T01:19:40.942Z,5.78
2022-10-30T01:22:24.828Z,5.63
2022-10-30T01:25:04.893Z,6.55
2022-10-30T01:27:45.088Z,6.40
2022-10-30T01:30:26.303Z,6.13
2022-10-30T01:33:10.157Z,8.15
2022-10-30T01:35:45.607Z,6.80
2022-10-30T01:38:20.638Z,8.88
2022-10-30T01:40:53.448Z,8.07
2022-10-30T01:43:22.519Z,6.47
2022-10-30T01:46:19.750Z,7.32
2022-10-30T01:49:06.464Z,6.93
2022-10-30T01:51:52.555Z,6.35
2022-10-30T01:54:34.044Z,6.57
2022-10-30T01:57:08.836Z,6.32
2022-10-30T01:59:45.765Z,5.70
2022-10-30T02:02:14.913Z,5.60
2022-10-30T02:04:45.499Z,5.22
2022-10-30T02:07:14.521Z,4.55
2022-10-30T02:09:49.552Z,6.27
2022-10-30T02:12:19.152Z,5.15
2022-10-30T02:14:50.881Z,5.80
2022-10-30T02:17:21.088Z,5.18
2022-10-30T02:19:53.251Z,5.25
2022-10-30T02:22:24.957Z,3.67
2022-10-30T02:24:54.811Z,5.35
2022-10-30T02:27:26.612Z,5.20
2022-10-30T02:29:55.477Z,3.95
2022-10-30T02:32:24.286Z,5.68
2022-10-30T02:34:53.177Z,4.47
2022-10-30T02:37:24.344Z,3.83
2022-10-30T02:39:53.673Z,4.25
2022-10-30T02:42:23.224Z,2.92
2022-10-30T02:44:54.217Z,4.32
2022-10-30T02:47:23.349Z,4.25
2022-10-30T02:49:52.320Z,5.68
2022-10-30T02:52:21.310Z,4.80
2022-10-30T02:54:51.555Z,6.32
2022-10-30T02:57:20.419Z,5.28
2022-10-30T02:59:49.278Z,6.28
2022-10-30T03:02:18.300Z,5.45
2022-10-30T03:04:47.234Z,5.72
2022-10-30T03:07:16.045Z,6.75
2022-10-30T03:09:44.918Z,6.57
2022-10-30T03:12:15.141Z,5.85
2022-10-30T03:14:43.944Z,5.93
2022-10-30T03:17:12.817Z,6.07
2022-10-30T03:19:41.996Z,5.70
2022-10-30T03:22:11.243Z,5.22
2022-10-30T03:24:40.520Z,5.88
2022-10-30T03:27:09.779Z,5.18
2022-10-30T03:29:41.787Z,5.38
2022-10-30T03:32:11.755Z,4.88
2022-10-30T03:34:48.398Z,6.00
2022-10-30T03:37:17.240Z,6.03
2022-10-30T03:39:46.360Z,5.57
2022-10-30T03:42:15.254Z,4.40
2022-10-30T03:44:46.400Z,5.50
2022-10-30T03:47:15.297Z,5.75
2022-10-30T03:49:46.533Z,5.53
2022-10-30T03:52:19.877Z,5.50
2022-10-30T03:54:50.804Z,4.85
2022-10-30T03:57:21.531Z,5.80
2022-10-30T04:00:16.396Z,5.40
2022-10-30T04:02:56.715Z,5.30
2022-10-30T04:05:28.344Z,4.72
2022-10-30T04:07:59.634Z,5.95
2022-10-30T04:10:30.083Z,7.43
2022-10-30T04:13:02.452Z,6.55
2022-10-30T04:15:33.760Z,5.82
2022-10-30T04:18:03.330Z,6.30
2022-10-30T04:20:33.135Z,6.57
2022-10-30T04:23:04.041Z,6.82
2022-10-30T04:25:35.162Z,7.25
2022-10-30T04:28:04.769Z,6.95
2022-10-30T04:30:35.814Z,6.75
2022-10-30T04:33:07.889Z,6.70
2022-10-30T04:35:38.423Z,7.80
2022-10-30T04:38:13.938Z,7.95
2022-10-30T04:40:45.284Z,7.45
2022-10-30T04:43:15.942Z,6.82
2022-10-30T04:45:50.503Z,6.35
2022-10-30T04:48:20.013Z,6.53
2022-10-30T04:50:49.700Z,8.05
2022-10-30T04:53:27.285Z,7.15
2022-10-30T04:56:06.133Z,7.90
2022-10-30T04:58:35.645Z,7.93
2022-10-30T05:01:11.479Z,5.88
2022-10-30T05:03:40.395Z,11.20
2022-10-30T05:06:22.907Z,11.10
2022-10-30T05:08:52.059Z,14.00
2022-10-30T05:11:44.071Z,16.23
2022-10-30T05:14:13.509Z,17.00
2022-10-30T05:16:43.742Z,17.45
2022-10-30T05:19:12.608Z,14.02
2022-10-30T05:21:47.245Z,17.23
2022-10-30T05:24:16.449Z,14.48
2022-10-30T05:26:46.460Z,12.90
2022-10-30T05:29:15.452Z,15.82
2022-10-30T05:31:45.842Z,15.60
2022-10-30T05:34:17.305Z,12.52
2022-10-30T05:36:48.807Z,13.48
2022-10-30T05:39:18.195Z,14.30
2022-10-30T05:41:50.814Z,14.40
2022-10-30T05:44:34.711Z,14.13
2022-10-30T05:47:13.387Z,13.43
2022-10-30T05:49:46.928Z,14.23
2022-10-30T05:52:20.652Z,15.50
2022-10-30T05:54:51.596Z,14.82
2022-10-30T05:57:33.210Z,12.60
2022-10-30T06:00:03.867Z,25.42
2022-10-30T06:02:34.616Z,13.07
2022-10-30T06:05:03.704Z,12.73
2022-10-30T06:07:32.613Z,11.18
2022-10-30T06:10:02.045Z,9.13
2022-10-30T06:12:45.351Z,10.32
2022-10-30T06:15:26.537Z,10.27
2022-10-30T06:17:57.616Z,8.23
2022-10-30T06:23:24.604Z,7.78
2022-10-30T06:26:13.662Z,5.43
2022-10-30T06:28:47.023Z,4.55
2022-10-30T06:31:16.919Z,4.90
2022-10-30T06:33:47.656Z,3.90
2022-10-30T06:36:17.455Z,5.40
2022-10-30T06:38:46.415Z,3.67
2022-10-30T06:41:19.979Z,3.20
2022-10-30T06:44:14.955Z,3.28
2022-10-30T06:46:43.822Z,4.68
2022-10-30T06:49:14.378Z,3.67
2022-10-30T06:51:43.789Z,5.63
2022-10-30T06:54:13.677Z,3.72
2022-10-30T06:56:42.537Z,4.05
2022-10-30T06:59:39.689Z,3.42
2022-10-30T07:02:23.361Z,3.13
2022-10-30T07:04:58.007Z,3.72
2022-10-30T07:07:26.879Z,3.20
2022-10-30T07:09:55.846Z,3.60
2022-10-30T07:12:37.442Z,4.97
2022-10-30T07:15:20.981Z,5.78
2022-10-30T07:18:03.132Z,5.45
2022-10-30T07:20:37.062Z,4.00
2022-10-30T07:23:06.901Z,3.10
2022-10-30T07:25:35.783Z,2.50
2022-10-30T07:28:10.620Z,3.58
2022-10-30T07:31:05.516Z,4.00
2022-10-30T07:33:52.923Z,3.92
2022-10-30T07:36:49.362Z,3.67
2022-10-30T07:39:27.762Z,3.30
2022-10-30T07:42:35.153Z,4.47
2022-10-30T07:45:27.176Z,3.47
2022-10-30T07:48:15.008Z,4.10
2022-10-30T07:50:49.412Z,3.50
2022-10-30T07:53:19.585Z,2.90
2022-10-30T07:55:50.168Z,2.70
2022-10-30T07:58:45.490Z,1.75
2022-10-30T08:01:33.607Z,2.17
2022-10-30T08:04:17.626Z,2.05
2022-10-30T08:06:46.509Z,1.45
2022-10-30T08:09:16.880Z,1.35
2022-10-30T08:11:48.845Z,0.77
2022-10-30T08:14:18.487Z,2.28
2022-10-30T08:16:47.425Z,1.20
2022-10-30T08:19:16.312Z,1.25
2022-10-30T08:21:45.218Z,1.15
2022-10-30T08:24:20.528Z,0.93
2022-10-30T08:26:52.880Z,1.00
2022-10-30T08:29:23.621Z,1.05
2022-10-30T08:31:53.063Z,0.93
2022-10-30T08:34:26.679Z,1.23
2022-10-30T08:36:57.664Z,1.13
2022-10-30T08:39:28.436Z,0.40
2022-10-30T08:42:05.321Z,0.98
2022-10-30T08:44:40.619Z,1.25
2022-10-30T08:47:35.399Z,1.98
2022-10-30T08:50:04.703Z,1.05
2022-10-30T08:52:34.536Z,0.82
2022-10-30T08:55:05.753Z,1.27
2022-10-30T08:57:37.860Z,0.90
2022-10-30T09:00:08.447Z,0.70
2022-10-30T09:03:06.419Z,0.77
2022-10-30T09:05:53.826Z,1.65
2022-10-30T09:08:42.785Z,0.65
2022-10-30T09:11:33.212Z,1.02
2022-10-30T09:14:02.290Z,0.80
2022-10-30T09:16:31.248Z,1.20
2022-10-30T09:19:00.061Z,1.25
2022-10-30T09:21:29.767Z,0.70
2022-10-30T09:23:59.149Z,0.70
2022-10-30T09:26:38.453Z,1.00
2022-10-30T09:29:27.196Z,0.73
2022-10-30T09:32:02.210Z,0.47
2022-10-30T09:34:33.191Z,0.80
2022-10-30T09:39:51.909Z,0.80
2022-10-30T09:42:41.682Z,0.70
2022-10-30T09:45:34.449Z,0.70
2022-10-30T09:48:21.431Z,0.55
2022-10-30T09:51:22.550Z,0.60
2022-10-30T09:54:05.431Z,0.75
2022-10-30T09:56:46.102Z,0.75
2022-10-30T09:59:30.979Z,0.70
2022-10-30T10:04:43.015Z,0.45
2022-10-30T10:07:21.039Z,0.40
2022-10-30T10:10:02.144Z,0.60
2022-10-30T10:12:53.867Z,0.82
2022-10-30T10:15:36.309Z,0.75
2022-10-30T10:18:15.077Z,0.65
2022-10-30T10:20:48.342Z,1.38
2022-10-30T10:23:20.458Z,1.23
2022-10-30T10:25:54.102Z,0.55
2022-10-30T10:28:50.925Z,0.88
2022-10-30T10:31:33.200Z,1.05
2022-10-30T10:34:19.039Z,0.98
2022-10-30T10:36:57.146Z,0.68
2022-10-30T10:39:42.440Z,1.05
2022-10-30T10:42:23.945Z,1.23
2022-10-30T10:45:08.215Z,1.60
2022-10-30T10:48:01.935Z,1.27
2022-10-30T10:50:35.693Z,1.13
2022-10-30T10:53:08.508Z,1.00
2022-10-30T10:55:41.333Z,1.70
2022-10-30T10:58:17.239Z,0.98
2022-10-30T11:00:47.436Z,1.38
2022-10-30T11:03:23.594Z,1.23
2022-10-30T11:05:55.196Z,1.30
2022-10-30T11:08:27.981Z,2.20
2022-10-30T11:10:59.599Z,1.35
2022-10-30T11:13:32.076Z,1.23
2022-10-30T11:16:13.143Z,0.82
2022-10-30T11:18:44.600Z,2.85
2022-10-30T11:21:20.128Z,1.20
2022-10-30T11:23:50.530Z,1.05
2022-10-30T11:26:34.255Z,1.60
2022-10-30T11:29:07.449Z,0.95
2022-10-30T11:31:40.188Z,1.08
2022-10-30T11:34:26.164Z,1.27
2022-10-30T11:36:55.756Z,0.80
2022-10-30T11:39:26.497Z,0.93
2022-10-30T11:42:03.361Z,1.45
2022-10-30T11:44:36.089Z,0.90
2022-10-30T11:47:06.680Z,0.80
2022-10-30T11:49:44.835Z,1.08
2022-10-30T11:52:16.685Z,0.90
2022-10-30T11:54:48.388Z,0.75
2022-10-30T11:57:23.548Z,0.80
2022-10-30T12:00:02.060Z,0.50
2022-10-30T12:02:43.714Z,0.80
2022-10-30T12:05:34.325Z,0.85
2022-10-30T12:08:21.329Z,1.30
2022-10-30T12:11:00.871Z,1.30
2022-10-30T12:13:35.164Z,1.02
2022-10-30T12:16:25.614Z,0.55
2022-10-30T12:19:02.555Z,1.10
2022-10-30T12:21:38.140Z,1.20
2022-10-30T12:24:14.253Z,1.08
2022-10-30T12:26:48.465Z,0.95
2022-10-30T12:29:20.749Z,0.68
2022-10-30T12:31:57.075Z,0.93
2022-10-30T12:34:35.162Z,1.15
2022-10-30T12:37:14.595Z,0.82
2022-10-30T12:39:49.829Z,1.15
2022-10-30T12:44:52.136Z,0.50
2022-10-30T12:47:30.467Z,0.40
2022-10-30T12:52:47.318Z,0.82
2022-10-30T12:55:22.396Z,0.52
2022-10-30T12:57:59.019Z,0.52
2022-10-30T13:00:31.401Z,0.20
2022-10-30T13:03:06.168Z,0.80
2022-10-30T13:05:41.374Z,0.57
2022-10-30T13:10:51.586Z,0.28
2022-10-30T13:13:23.378Z,0.20
2022-10-30T13:15:55.254Z,0.75
2022-10-30T13:18:26.909Z,0.63
2022-10-30T13:21:03.477Z,0.55
2022-10-30T13:23:43.347Z,0.65
2022-10-30T13:26:23.433Z,0.80
2022-10-30T13:28:56.817Z,0.80
2022-10-30T13:31:38.108Z,1.17
2022-10-30T13:34:17.498Z,0.57
2022-10-30T13:36:52.100Z,1.25
2022-10-30T13:39:32.138Z,0.80
2022-10-30T13:42:22.229Z,5.78
2022-10-30T13:45:06.904Z,7.47
2022-10-30T13:47:45.980Z,1.42
2022-10-30T13:50:36.742Z,0.73
2022-10-30T13:53:12.312Z,1.17
2022-10-30T13:55:43.265Z,0.80
2022-10-30T13:58:20.247Z,1.42
2022-10-30T14:01:04.766Z,0.70
2022-10-30T14:03:44.849Z,1.98
2022-10-30T14:06:23.275Z,2.45
2022-10-30T14:09:01.164Z,1.38
2022-10-30T14:11:31.744Z,0.65
2022-10-30T14:14:06.082Z,1.17
2022-10-30T14:16:42.894Z,0.50
2022-10-30T14:19:13.201Z,0.60
2022-10-30T14:21:44.618Z,1.52
2022-10-30T14:24:16.227Z,1.27
2022-10-30T14:26:53.145Z,0.47
2022-10-30T14:29:38.701Z,1.17
2022-10-30T14:32:49.053Z,0.63
2022-10-30T14:35:36.723Z,0.40
2022-10-30T14:38:25.439Z,0.50
2022-10-30T14:41:19.357Z,0.50
2022-10-30T14:43:58.999Z,3.83
2022-10-30T14:46:35.870Z,2.53
2022-10-30T14:49:17.180Z,2.17
2022-10-30T14:51:55.285Z,1.23
2022-10-30T14:54:30.176Z,0.80
2022-10-30T14:56:59.009Z,0.93
2022-10-30T14:59:36.338Z,1.50
2022-10-30T15:02:37.371Z,2.22
2022-10-30T15:05:33.068Z,0.82
2022-10-30T15:08:14.643Z,1.23
2022-10-30T15:11:01.985Z,1.13
2022-10-30T15:13:30.949Z,0.65
2022-10-30T15:16:01.992Z,0.80
2022-10-30T15:18:31.460Z,0.40
2022-10-30T15:21:05.817Z,0.75
2022-10-30T15:23:37.120Z,1.33
2022-10-30T15:26:10.023Z,0.70
2022-10-30T15:28:39.963Z,0.85
2022-10-30T15:31:23.348Z,0.95
2022-10-30T15:33:54.229Z,0.40
2022-10-30T15:36:25.474Z,0.90
2022-10-30T15:39:08.591Z,6.47
2022-10-30T15:41:44.487Z,12.35
2022-10-30T15:46:49.559Z,5.53
2022-10-30T15:49:25.585Z,4.97
2022-10-30T15:51:54.529Z,4.75
2022-10-30T15:54:24.768Z,1.35
2022-10-30T15:57:31.357Z,1.50
2022-10-30T15:59:53.699Z,1.30
2022-10-30T16:02:27.015Z,1.40
2022-10-30T16:04:56.377Z,2.00
2022-10-30T16:07:27.000Z,6.78
2022-10-30T16:09:57.962Z,4.10
2022-10-30T16:12:28.153Z,2.80
2022-10-30T16:14:58.434Z,4.25
2022-10-30T16:17:28.982Z,2.47
2022-10-30T16:20:03.255Z,2.65
2022-10-30T16:22:36.973Z,1.75
2022-10-30T16:25:08.773Z,9.18
2022-10-30T16:27:46.176Z,13.55
2022-10-30T16:30:17.445Z,7.68
2022-10-30T16:32:52.639Z,6.38
2022-10-30T16:37:52.374Z,4.88
2022-10-30T16:40:24.818Z,1.83
2022-10-30T16:42:58.163Z,1.52
2022-10-30T16:45:49.297Z,2.95
2022-10-30T16:48:27.649Z,2.40
2022-10-30T16:51:02.133Z,2.70
2022-10-30T16:53:32.345Z,1.63
2022-10-30T16:56:01.564Z,1.48
2022-10-30T16:58:32.542Z,1.35
2022-10-30T17:01:06.338Z,0.70
2022-10-30T17:03:40.465Z,1.35
2022-10-30T17:06:27.486Z,0.90
2022-10-30T17:09:00.199Z,2.47
2022-10-30T17:11:38.657Z,1.30
2022-10-30T17:14:20.788Z,2.65
2022-10-30T17:16:55.407Z,3.15
2022-10-30T17:19:48.645Z,1.98
2022-10-30T17:22:21.046Z,1.77
2022-10-30T17:24:49.977Z,1.08
2022-10-30T17:27:46.715Z,2.25
2022-10-30T17:30:40.756Z,5.25
2022-10-30T17:33:36.280Z,8.23
2022-10-30T17:36:08.206Z,1.83
2022-10-30T17:38:37.048Z,1.90
2022-10-30T17:41:07.040Z,0.75
2022-10-30T17:43:48.755Z,2.22
2022-10-30T17:46:20.084Z,2.45
2022-10-30T17:48:49.816Z,1.92
2022-10-30T17:51:20.940Z,1.90
2022-10-30T17:53:50.388Z,2.10
2022-10-30T17:56:23.909Z,1.73
2022-10-30T17:58:52.889Z,2.28
2022-10-30T18:01:23.691Z,2.28
2022-10-30T18:03:54.982Z,2.97
2022-10-30T18:06:26.648Z,1.20
2022-10-30T18:08:56.352Z,1.27
2022-10-30T18:11:27.158Z,1.60
2022-10-30T18:13:58.163Z,3.85
2022-10-30T18:16:27.165Z,2.33
2022-10-30T18:18:56.264Z,1.75
2022-10-30T18:21:27.541Z,1.70
2022-10-30T18:23:56.659Z,1.42
2022-10-30T18:26:26.997Z,1.27
2022-10-30T18:28:56.269Z,1.77
2022-10-30T18:31:25.753Z,1.35
2022-10-30T18:33:54.613Z,1.50
2022-10-30T18:36:24.750Z,1.98
2022-10-30T18:38:56.142Z,0.80
2022-10-30T18:41:29.590Z,1.02
2022-10-30T18:43:58.418Z,1.88
2022-10-30T18:46:27.775Z,4.07
2022-10-30T18:48:56.667Z,1.80
2022-10-30T18:51:27.121Z,1.02
2022-10-30T18:53:57.435Z,5.40
2022-10-30T18:56:27.795Z,3.85
2022-10-30T18:59:01.731Z,2.78
2022-10-30T19:01:32.321Z,3.67
2022-10-30T19:04:03.626Z,3.63
2022-10-30T19:06:34.540Z,3.20
2022-10-30T19:09:05.546Z,2.83
2022-10-30T19:11:36.482Z,2.40
2022-10-30T19:14:12.400Z,5.28
2022-10-30T19:16:41.392Z,5.55
2022-10-30T19:19:10.204Z,2.90
2022-10-30T19:21:39.051Z,3.15
2022-10-30T19:24:13.638Z,3.08
2022-10-30T19:26:42.523Z,3.30
2022-10-30T19:29:11.307Z,1.50
2022-10-30T19:31:40.131Z,1.85
2022-10-30T19:34:08.968Z,1.38
2022-10-30T19:36:38.832Z,1.80
2022-10-30T19:39:13.384Z,1.80
2022-10-30T19:41:42.342Z,1.52
2022-10-30T19:44:11.618Z,1.80
2022-10-30T19:46:40.469Z,2.25
2022-10-30T19:49:17.843Z,1.65
2022-10-30T19:51:47.075Z,2.22
2022-10-30T19:54:17.421Z,2.28
2022-10-30T19:57:07.204Z,2.55
2022-10-30T19:59:36.091Z,1.55
2022-10-30T20:02:05.057Z,1.63
2022-10-30T20:04:33.980Z,2.08
2022-10-30T20:07:03.251Z,1.77
2022-10-30T20:09:33.487Z,1.40
2022-10-30T20:12:02.279Z,2.20
2022-10-30T20:14:31.085Z,2.75
2022-10-30T20:16:59.934Z,2.03
2022-10-30T20:19:31.121Z,1.27
2022-10-30T20:21:59.957Z,1.70
2022-10-30T20:24:29.597Z,2.15
2022-10-30T20:26:59.945Z,2.83
2022-10-30T20:29:29.942Z,4.03
2022-10-30T20:31:58.845Z,2.97
2022-10-30T20:34:27.617Z,3.20
2022-10-30T20:36:56.455Z,3.15
2022-10-30T20:39:25.291Z,4.95
2022-10-30T20:41:54.123Z,6.15
2022-10-30T20:44:24.308Z,2.63
2022-10-30T20:46:53.259Z,2.70
2022-10-30T20:49:22.232Z,2.70
2022-10-30T20:51:51.163Z,2.90
2022-10-30T20:54:19.983Z,4.53
2022-10-30T20:56:48.779Z,4.82
2022-10-30T20:59:17.578Z,4.82
2022-10-30T21:01:47.875Z,4.38
2022-10-30T21:04:16.925Z,2.83
2022-10-30T21:06:45.756Z,2.60
2022-10-30T21:09:14.569Z,2.95
2022-10-30T21:11:43.409Z,3.20
2022-10-30T21:14:12.205Z,4.20
2022-10-30T21:16:41.029Z,4.43
2022-10-30T21:19:11.308Z,5.07
2022-10-30T21:21:40.170Z,4.35
2022-10-30T21:24:09.302Z,3.83
2022-10-30T21:26:38.104Z,4.40
2022-10-30T21:29:07.063Z,13.63
2022-10-30T21:31:35.931Z,10.93
2022-10-30T21:34:04.897Z,8.38
2022-10-30T21:36:35.779Z,7.22
2022-10-30T21:39:05.709Z,9.07
2022-10-30T21:41:34.528Z,13.75
2022-10-30T21:44:03.389Z,15.27
2022-10-30T21:46:33.257Z,21.33
2022-10-30T21:49:06.370Z,15.27
2022-10-30T21:51:36.596Z,13.70
2022-10-30T21:54:05.613Z,6.65
2022-10-30T21:56:36.110Z,9.98
2022-10-30T21:59:06.868Z,6.65
2022-10-30T22:01:37.157Z,5.10
2022-10-30T22:04:07.955Z,4.45
2022-10-30T22:06:41.705Z,5.82
2022-10-30T22:09:11.162Z,6.45
2022-10-30T22:11:39.954Z,5.38
2022-10-30T22:14:08.969Z,5.20
2022-10-30T22:16:39.536Z,5.78
2022-10-30T22:19:09.752Z,4.38
2022-10-30T22:21:40.009Z,7.35
2022-10-30T22:24:09.365Z,5.53
2022-10-30T22:26:38.148Z,6.75
2022-10-30T22:29:06.935Z,6.32
2022-10-30T22:31:35.775Z,12.52
2022-10-30T22:34:04.585Z,10.48
2022-10-30T22:36:34.484Z,7.03
2022-10-30T22:39:07.474Z,9.75
2022-10-30T22:41:37.767Z,7.05
2022-10-30T22:44:09.097Z,9.30
2022-10-30T22:46:38.600Z,8.38
2022-10-30T22:49:08.288Z,5.30
2022-10-30T22:51:39.815Z,4.05
2022-10-30T22:54:13.281Z,3.47
2022-10-30T22:56:42.758Z,2.72
2022-10-30T22:59:12.984Z,3.47
2022-10-30T23:01:42.533Z,3.47
2022-10-30T23:04:13.040Z,3.55
2022-10-30T23:06:42.354Z,2.67
2022-10-30T23:09:17.219Z,4.28
2022-10-30T23:11:46.083Z,4.20
2022-10-30T23:14:15.382Z,3.83
2022-10-30T23:16:44.654Z,4.70
2022-10-30T23:19:13.458Z,5.85
2022-10-30T23:21:42.265Z,5.40
2022-10-30T23:24:12.505Z,3.13
2022-10-30T23:26:41.379Z,4.45
2022-10-30T23:29:10.220Z,2.80
2022-10-30T23:31:40.689Z,3.67
2022-10-30T23:34:12.355Z,2.55
2022-10-30T23:36:41.880Z,2.63
2022-10-30T23:39:15.013Z,2.25
2022-10-30T23:41:44.744Z,3.30
2022-10-30T23:44:15.071Z,3.72
2022-10-30T23:46:44.305Z,4.10
2022-10-30T23:49:13.180Z,4.13
2022-10-30T23:51:42.067Z,4.35
2022-10-30T23:54:11.174Z,3.45
2022-10-30T23:56:41.384Z,3.70
2022-10-30T23:59:10.850Z,2.63
